createdAt,value
2023-04-27T00:20:05.808Z,82.9
2023-04-27T00:50:21.798Z,85.7
2023-04-27T01:20:39.111Z,86.4
2023-04-27T01:50:55.143Z,88.6
2023-04-27T02:21:12.761Z,90
2023-04-27T02:51:28.944Z,90
2023-04-27T03:21:46.859Z,91.4
2023-04-27T03:52:04.724Z,91.6
2023-04-27T04:22:25.007Z,91.50001
2023-04-27T05:23:01.559Z,86.4
2023-04-27T05:53:21.490Z,79.6
2023-04-27T06:23:48.895Z,70.2
2023-04-27T06:54:08.935Z,61.2
2023-04-27T07:24:38.406Z,54.6
2023-04-27T07:54:54.047Z,51.4
2023-04-27T08:25:22.812Z,48
2023-04-27T08:55:44.551Z,45.9
2023-04-27T09:26:03.314Z,42.6
2023-04-27T09:56:27.075Z,41.4
2023-04-27T10:26:46.673Z,41.1
2023-04-27T10:57:01.233Z,40.6
2023-04-27T11:27:17.085Z,41.7
2023-04-27T11:57:29.892Z,42.1
2023-04-27T12:27:51.280Z,40
2023-04-27T12:58:10.823Z,39.6
2023-04-27T13:28:26.431Z,42.7
2023-04-27T13:58:37.962Z,45.1
2023-04-27T14:28:56.270Z,45.8
2023-04-27T14:59:11.193Z,47.5
2023-04-27T15:29:25.648Z,48.5
2023-04-27T15:59:41.018Z,50.4
2023-04-27T16:29:56.809Z,51.8
2023-04-27T17:30:30.405Z,54.4
2023-04-27T18:00:46.262Z,55.3
2023-04-27T18:31:02.525Z,56.1
2023-04-27T19:01:20.014Z,57.8
2023-04-27T19:31:35.722Z,59.9
2023-04-27T20:01:53.272Z,64.9
2023-04-27T20:32:11.319Z,63.6
2023-04-27T21:02:28.878Z,64.9
2023-04-27T21:32:46.045Z,63.8
2023-04-27T22:03:03.098Z,63.5
2023-04-27T22:33:20.323Z,62.5
2023-04-27T23:03:36.832Z,63.3
2023-04-27T23:33:54.879Z,63.9
